Bay Shore, New York
Current Conditions -  °F | °C
As of 7:56 AM on Wednesday 26 Nov 2014 (Local Time) from KISP Reporting Station
Overcast Overcast  
Wind Chill: 38°   Ceiling: 8000
Heat Index: 44°   Visibility: 10mi
Dew Point: 33°   Wind: 12mph
Humidity: 65%   Direction: 20°NNE
Pressure: 30.13"   Gusts: NA
Location:  40.72°N, 73.25°W
Report Text: KISP 261256Z 02010KT 10SM FEW060 OVC080 07/01 A3013 RMK AO2 RAE49 SLP204 P0000 T00670006
Loading
Personal Weather Stations






























Interactive Weather Map New forecast layout! Learn more

10-Day Weather Forecast

Advertisements
Track Severe Weather on mobile